Airfield :
LOGIN :

Register | Disclaimer

   EN    FR    IT 

 










Legend :    VFR   Marginal VFR   IFR   Intensive IFR   Very Intensive IFR
Visi :
Ceiling :
>= 8 km
>= 3000ft
5 to 8 km
1000 to 3000 ft
1500m to 5 km
500 to 1000 ft
800 to 1500m
200 to 500 ft
< 800m
< 200 ft
Symbols :   Thunderstorms  Fog  Heavy snow  Heavy precipitations  Wind > 20 kt
SIGMETs :     Misc.  Thunderstorms  Icing  Turbulence  Mountain Waves  Volcanic Ashes







- Airport Elevation : 11 ft
- IATA code : MJV


LELC - Murcia San Javier

CURRENT METAR :
  • 211530Z AUTO 20006KT 150V250 9999 NCD 27/20 Q1012

EXPIRED METARs :
  • 211500Z 16004KT 120V210 9999 FEW025 27/21 Q1012 NOSIG
  • 211430Z 15006KT 120V190 9999 FEW025 27/22 Q1012 NOSIG
  • 211400Z 15004KT 110V190 9999 FEW030 27/22 Q1012 NOSIG
  • 211330Z 12004KT 060V170 9999 FEW030 27/22 Q1012 NOSIG
  • 211300Z 13003KT 070V170 9999 FEW030 27/20 Q1012 NOSIG

TAF COR TAF LELC
Valid from the 21 at 12:00 until the 22 at 12:00 UTC


211100Z 2112/2212 20009KT 9999 SCT020 TX30/2212Z TN21/2206Z
PROB30
TEMPO 2112/2119 SHRA FEW030CB
BECMG 2208/2210 33010KT
No reported NOTAMs for that airfield.



MET'MAP, your aeronautical weather chart ! - Copyright ORBIFLY December 2007 - Disclaimer

ORBIFLY MET'MAP TEAM :

Programming & Development : Alexandra Zaïnal
Concept & Development : Baudouin d'Aumeries
Co-Development & Prog : Marc-Olivier Méhu
Technical & hardware support : Manuel Goepfert

Contact : metmap@orbifly.com




SOURCES & CREDITS :

   NOAA